createdAt,value
2023-04-15T00:00:12.116Z,100651.22
2023-04-15T00:02:38.871Z,100663.56
2023-04-15T00:05:06.414Z,100661.00
2023-04-15T00:07:33.149Z,100664.56
2023-04-15T00:10:00.076Z,100664.59
2023-04-15T00:12:28.372Z,100671.09
2023-04-15T00:14:55.886Z,100685.50
2023-04-15T00:17:22.902Z,100681.13
2023-04-15T00:19:49.811Z,100687.91
2023-04-15T00:22:17.353Z,100683.22
2023-04-15T00:24:44.208Z,100695.38
2023-04-15T00:27:11.506Z,100698.78
2023-04-15T00:29:38.171Z,100692.78
2023-04-15T00:32:04.774Z,100696.19
2023-04-15T00:34:31.414Z,100703.00
2023-04-15T00:36:58.440Z,100703.00
2023-04-15T00:39:25.082Z,100709.47
2023-04-15T00:41:52.027Z,100709.63
2023-04-15T00:44:19.000Z,100709.31
2023-04-15T00:46:46.725Z,100700.06
2023-04-15T00:49:13.470Z,100708.50
2023-04-15T00:51:40.617Z,100698.13
2023-04-15T00:54:07.884Z,100702.34
2023-04-15T00:56:38.062Z,100708.00
2023-04-15T00:59:06.504Z,100705.75
2023-04-15T01:01:35.412Z,100707.84
2023-04-15T01:04:03.357Z,100702.31
2023-04-15T01:06:32.393Z,100714.09
2023-04-15T01:09:00.514Z,100723.63
2023-04-15T01:11:28.160Z,100720.72
2023-04-15T01:13:57.052Z,100733.66
2023-04-15T01:16:24.109Z,100729.47
2023-04-15T01:18:50.828Z,100737.53
2023-04-15T01:21:18.339Z,100731.06
2023-04-15T01:23:47.449Z,100728.63
2023-04-15T01:26:14.512Z,100732.81
2023-04-15T01:28:41.235Z,100733.97
2023-04-15T01:31:11.869Z,100746.72
2023-04-15T01:33:39.668Z,100759.50
2023-04-15T01:36:08.560Z,100760.41
2023-04-15T01:38:36.062Z,100762.69
2023-04-15T01:41:04.798Z,100760.75
2023-04-15T01:43:31.496Z,100758.50
2023-04-15T01:45:58.198Z,100755.59
2023-04-15T01:48:24.955Z,100764.47
2023-04-15T01:50:53.528Z,100773.00
2023-04-15T01:53:20.736Z,100773.00
2023-04-15T01:55:47.525Z,100766.25
2023-04-15T01:58:14.180Z,100770.94
2023-04-15T02:00:41.245Z,100777.59
2023-04-15T02:03:08.245Z,100773.81
2023-04-15T02:05:34.922Z,100775.75
2023-04-15T02:08:01.645Z,100788.88
2023-04-15T02:10:28.272Z,100785.84
2023-04-15T02:12:54.913Z,100787.75
2023-04-15T02:15:21.675Z,100782.88
2023-04-15T02:17:51.113Z,100794.03
2023-04-15T02:20:19.351Z,100798.53
2023-04-15T02:22:46.098Z,100804.66
2023-04-15T02:25:12.852Z,100800.72
2023-04-15T02:27:39.487Z,100798.28
2023-04-15T02:30:07.452Z,100798.09
2023-04-15T02:32:34.178Z,100798.91
2023-04-15T02:35:09.045Z,100798.72
2023-04-15T02:37:43.319Z,100795.19
2023-04-15T02:40:13.947Z,100798.84
2023-04-15T02:42:41.552Z,100800.44
2023-04-15T02:45:08.802Z,100799.44
2023-04-15T02:47:36.278Z,100800.16
2023-04-15T02:50:08.121Z,100818.09
2023-04-15T02:52:34.787Z,100817.25
2023-04-15T02:55:02.680Z,100821.13
2023-04-15T02:57:29.772Z,100814.66
2023-04-15T02:59:56.435Z,100822.88
2023-04-15T03:02:23.312Z,100825.31
2023-04-15T03:04:50.842Z,100821.75
2023-04-15T03:07:18.760Z,100828.06
2023-04-15T03:09:46.212Z,100835.38
2023-04-15T03:12:14.158Z,100829.97
2023-04-15T03:14:41.158Z,100839.66
2023-04-15T03:17:08.843Z,100848.63
2023-04-15T03:19:35.614Z,100855.56
2023-04-15T03:22:03.370Z,100857.19
2023-04-15T03:24:30.394Z,100853.97
2023-04-15T03:26:57.886Z,100870.94
2023-04-15T03:29:24.770Z,100873.47
2023-04-15T03:31:52.528Z,100865.06
2023-04-15T03:34:19.238Z,100873.09
2023-04-15T03:36:46.864Z,100872.88
2023-04-15T03:39:13.724Z,100876.78
2023-04-15T03:41:40.620Z,100883.97
2023-04-15T03:44:07.272Z,100880.03
2023-04-15T03:46:33.943Z,100890.81
2023-04-15T03:49:02.405Z,100889.81
2023-04-15T03:51:29.487Z,100892.34
2023-04-15T03:53:57.151Z,100900.88
2023-04-15T03:56:23.718Z,100906.06
2023-04-15T03:58:50.400Z,100907.38
2023-04-15T04:01:17.425Z,100906.06
2023-04-15T04:03:44.236Z,100905.25
2023-04-15T04:06:12.609Z,100914.63
2023-04-15T04:08:39.283Z,100914.13
2023-04-15T04:11:05.929Z,100914.22
2023-04-15T04:13:32.582Z,100911.25
2023-04-15T04:15:59.347Z,100913.19
2023-04-15T04:18:25.993Z,100915.44
2023-04-15T04:20:53.759Z,100924.56
2023-04-15T04:23:20.759Z,100927.63
2023-04-15T04:25:47.711Z,100926.28
2023-04-15T04:28:14.324Z,100933.19
2023-04-15T04:30:41.082Z,100929.84
2023-04-15T04:33:07.947Z,100927.63
2023-04-15T04:35:37.672Z,100922.94
2023-04-15T04:38:04.628Z,100938.19
2023-04-15T04:40:31.436Z,100930.06
2023-04-15T04:42:58.135Z,100933.09
2023-04-15T04:45:24.784Z,100942.22
2023-04-15T04:47:51.558Z,100942.22
2023-04-15T04:50:18.235Z,100943.03
2023-04-15T04:52:45.058Z,100938.97
2023-04-15T04:55:11.770Z,100940.69
2023-04-15T04:57:39.650Z,100949.50
2023-04-15T05:00:08.584Z,100957.22
2023-04-15T05:02:35.491Z,100951.75
2023-04-15T05:05:02.325Z,100946.25
2023-04-15T05:07:28.972Z,100941.09
2023-04-15T05:09:55.734Z,100960.06
2023-04-15T05:12:22.481Z,100953.56
2023-04-15T05:14:49.180Z,100959.06
2023-04-15T05:17:15.829Z,100964.00
2023-04-15T05:19:42.466Z,100965.13
2023-04-15T05:22:09.173Z,100971.22
2023-04-15T05:24:36.500Z,100983.59
2023-04-15T05:27:03.793Z,100987.22
2023-04-15T05:29:30.706Z,100993.31
2023-04-15T05:31:57.599Z,100993.84
2023-04-15T05:34:24.232Z,100998.41
2023-04-15T05:36:50.874Z,101003.06
2023-04-15T05:39:17.495Z,101008.88
2023-04-15T05:41:44.578Z,101015.16
2023-04-15T05:44:11.248Z,101017.91
2023-04-15T05:46:37.980Z,101020.13
2023-04-15T05:49:04.742Z,101018.50
2023-04-15T05:51:31.839Z,101024.00
2023-04-15T05:53:58.471Z,101033.03
2023-04-15T05:56:27.091Z,101031.72
2023-04-15T05:58:53.881Z,101038.78
2023-04-15T06:01:20.910Z,101029.38
2023-04-15T06:03:47.699Z,101049.00
2023-04-15T06:06:15.494Z,101053.91
2023-04-15T06:08:42.161Z,101059.31
2023-04-15T06:11:08.859Z,101069.69
2023-04-15T06:13:40.666Z,101068.88
2023-04-15T06:16:08.106Z,101065.84
2023-04-15T06:18:34.782Z,101070.41
2023-04-15T06:21:01.486Z,101078.66
2023-04-15T06:23:28.154Z,101079.97
2023-04-15T06:25:54.754Z,101089.25
2023-04-15T06:28:22.979Z,101083.97
2023-04-15T06:30:49.618Z,101087.53
2023-04-15T06:33:16.249Z,101094.66
2023-04-15T06:35:43.193Z,101091.59
2023-04-15T06:38:09.762Z,101096.78
2023-04-15T06:40:36.825Z,101095.69
2023-04-15T06:43:04.911Z,101104.13
2023-04-15T06:45:32.262Z,101108.19
2023-04-15T06:47:58.978Z,101109.75
2023-04-15T06:50:25.743Z,101123.41
2023-04-15T06:52:52.615Z,101134.78
2023-04-15T06:55:19.401Z,101134.72
2023-04-15T06:57:46.471Z,101140.09
2023-04-15T07:00:13.749Z,101130.16
2023-04-15T07:02:40.600Z,101138.91
2023-04-15T07:05:08.414Z,101136.69
2023-04-15T07:07:36.148Z,101134.66
2023-04-15T07:10:04.133Z,101148.00
2023-04-15T07:12:31.109Z,101147.91
2023-04-15T07:14:58.839Z,101152.81
2023-04-15T07:17:25.589Z,101153.00
2023-04-15T07:19:52.490Z,101147.41
2023-04-15T07:22:19.315Z,101153.13
2023-04-15T07:24:46.704Z,101157.94
2023-04-15T07:27:13.402Z,101165.25
2023-04-15T07:29:40.681Z,101174.25
2023-04-15T07:32:07.475Z,101178.03
2023-04-15T07:34:34.225Z,101179.53
2023-04-15T07:37:01.517Z,101187.69
2023-04-15T07:39:29.298Z,101189.72
2023-04-15T07:41:56.369Z,101195.66
2023-04-15T07:44:23.013Z,101196.06
2023-04-15T07:46:49.714Z,101207.47
2023-04-15T07:49:16.341Z,101204.00
2023-04-15T07:51:44.023Z,101220.09
2023-04-15T07:54:10.660Z,101214.16
2023-04-15T07:56:37.293Z,101211.53
2023-04-15T07:59:04.843Z,101223.13
2023-04-15T08:01:36.177Z,101224.81
2023-04-15T08:04:03.991Z,101221.06
2023-04-15T08:06:31.074Z,101224.69
2023-04-15T08:08:57.900Z,101220.91
2023-04-15T08:11:25.019Z,101226.50
2023-04-15T08:13:52.597Z,101229.50
2023-04-15T08:16:23.608Z,101233.03
2023-04-15T08:18:52.201Z,101228.38
2023-04-15T08:21:20.040Z,101227.50
2023-04-15T08:23:48.525Z,101217.22
2023-04-15T08:26:15.765Z,101221.22
2023-04-15T08:28:44.191Z,101223.41
2023-04-15T08:31:10.932Z,101235.38
2023-04-15T08:33:37.570Z,101236.50
2023-04-15T08:36:04.679Z,101237.38
2023-04-15T08:38:31.378Z,101228.72
2023-04-15T08:41:03.868Z,101233.44
2023-04-15T08:43:35.589Z,101239.25
2023-04-15T08:46:04.436Z,101244.22
2023-04-15T08:48:33.463Z,101255.41
2023-04-15T08:51:00.927Z,101264.72
2023-04-15T08:53:30.433Z,101267.16
2023-04-15T08:55:58.639Z,101271.44
2023-04-15T08:58:26.200Z,101272.53
2023-04-15T09:00:53.237Z,101277.00
2023-04-15T09:03:21.901Z,101289.59
2023-04-15T09:05:48.669Z,101282.72
2023-04-15T09:08:15.793Z,101286.59
2023-04-15T09:10:42.687Z,101291.53
2023-04-15T09:13:09.597Z,101293.88
2023-04-15T09:15:39.007Z,101294.38
2023-04-15T09:18:07.020Z,101287.38
2023-04-15T09:20:44.280Z,101289.00
2023-04-15T09:23:15.393Z,101292.63
2023-04-15T09:25:44.273Z,101297.50
2023-04-15T09:28:11.432Z,101302.47
2023-04-15T09:30:39.229Z,101297.78
2023-04-15T09:33:08.350Z,101313.53
2023-04-15T09:35:38.132Z,101300.34
2023-04-15T09:38:09.926Z,101304.44
2023-04-15T09:40:41.219Z,101306.91
2023-04-15T09:43:09.523Z,101308.53
2023-04-15T09:45:37.206Z,101304.44
2023-04-15T09:48:25.516Z,101309.56
2023-04-15T09:50:54.049Z,101307.38
2023-04-15T09:53:22.540Z,101304.91
2023-04-15T09:56:01.510Z,101303.78
2023-04-15T09:58:30.870Z,101302.59
2023-04-15T10:00:59.852Z,101311.63
2023-04-15T10:03:32.051Z,101302.97
2023-04-15T10:06:00.550Z,101294.56
2023-04-15T10:08:33.745Z,101302.81
2023-04-15T10:11:05.040Z,101310.09
2023-04-15T10:13:37.448Z,101309.31
2023-04-15T10:16:11.839Z,101302.50
2023-04-15T10:18:42.926Z,101294.84
2023-04-15T10:21:10.100Z,101303.69
2023-04-15T10:23:36.911Z,101309.31
2023-04-15T10:26:07.656Z,101304.13
2023-04-15T10:28:34.874Z,101301.72
2023-04-15T10:31:01.847Z,101306.50
2023-04-15T10:33:29.751Z,101312.91
2023-04-15T10:35:57.692Z,101307.69
2023-04-15T10:38:42.558Z,101309.22
2023-04-15T10:41:22.732Z,101305.16
2023-04-15T10:44:05.428Z,101307.38
2023-04-15T10:46:45.364Z,101312.88
2023-04-15T10:49:15.444Z,101315.09
2023-04-15T10:51:44.846Z,101310.41
2023-04-15T10:54:26.586Z,101316.34
2023-04-15T10:57:09.156Z,101314.22
2023-04-15T11:00:04.770Z,101302.78
2023-04-15T11:03:08.181Z,101302.81
2023-04-15T11:05:52.426Z,101305.88
2023-04-15T11:08:19.433Z,101303.78
2023-04-15T11:10:46.046Z,101301.03
2023-04-15T11:13:12.750Z,101308.56
2023-04-15T11:15:42.006Z,101311.34
2023-04-15T11:18:12.741Z,101307.84
2023-04-15T11:20:43.035Z,101303.34
2023-04-15T11:23:14.462Z,101301.84
2023-04-15T11:25:43.283Z,101290.72
2023-04-15T11:28:12.090Z,101304.03
2023-04-15T11:30:40.378Z,101296.66
2023-04-15T11:33:10.026Z,101283.69
2023-04-15T11:35:36.935Z,101307.59
2023-04-15T11:38:10.741Z,101301.97
2023-04-15T11:40:38.244Z,101309.94
2023-04-15T11:43:10.356Z,101304.38
2023-04-15T11:45:55.635Z,101313.09
2023-04-15T11:48:24.883Z,101320.75
2023-04-15T11:50:59.575Z,101312.38
2023-04-15T11:53:42.967Z,101324.56
2023-04-15T11:56:17.465Z,101325.03
2023-04-15T11:58:46.517Z,101318.75
2023-04-15T12:01:13.796Z,101317.28
2023-04-15T12:03:48.476Z,101323.22
2023-04-15T12:06:19.679Z,101321.69
2023-04-15T12:08:55.750Z,101323.13
2023-04-15T12:11:31.988Z,101320.78
2023-04-15T12:14:24.638Z,101308.22
2023-04-15T12:16:58.284Z,101321.06
2023-04-15T12:19:30.877Z,101324.31
2023-04-15T12:22:01.954Z,101324.53
2023-04-15T12:24:32.253Z,101325.22
2023-04-15T12:27:09.588Z,101316.59
2023-04-15T12:29:39.419Z,101329.81
2023-04-15T12:32:11.786Z,101324.22
2023-04-15T12:34:44.937Z,101322.84
2023-04-15T12:37:14.359Z,101332.72
2023-04-15T12:39:43.364Z,101340.63
2023-04-15T12:42:10.925Z,101339.69
2023-04-15T12:44:38.857Z,101332.31
2023-04-15T12:47:05.678Z,101331.41
2023-04-15T12:49:33.562Z,101335.63
2023-04-15T12:52:03.585Z,101328.94
2023-04-15T12:54:31.564Z,101327.34
2023-04-15T12:56:59.471Z,101338.22
2023-04-15T12:59:27.560Z,101333.84
2023-04-15T13:01:54.717Z,101339.41
2023-04-15T13:04:22.317Z,101328.03
2023-04-15T13:06:49.562Z,101331.72
2023-04-15T13:09:16.320Z,101327.78
2023-04-15T13:11:43.178Z,101345.41
2023-04-15T13:14:11.725Z,101332.41
2023-04-15T13:16:39.038Z,101334.50
2023-04-15T13:19:05.708Z,101333.88
2023-04-15T13:21:35.602Z,101332.16
2023-04-15T13:24:03.538Z,101329.38
2023-04-15T13:26:31.712Z,101335.88
2023-04-15T13:28:58.396Z,101331.94
2023-04-15T13:31:25.208Z,101341.22
2023-04-15T13:33:51.849Z,101336.44
2023-04-15T13:36:18.720Z,101339.78
2023-04-15T13:38:45.355Z,101339.75
2023-04-15T13:41:12.196Z,101335.75
2023-04-15T13:43:38.943Z,101353.59
2023-04-15T13:46:05.870Z,101340.13
2023-04-15T13:48:32.537Z,101336.38
2023-04-15T13:50:59.191Z,101323.59
2023-04-15T13:53:37.642Z,101324.78
2023-04-15T13:56:06.664Z,101332.66
2023-04-15T13:58:33.318Z,101327.66
2023-04-15T14:01:02.084Z,101325.22
2023-04-15T14:03:31.064Z,101326.38
2023-04-15T14:05:58.476Z,101322.72
2023-04-15T14:08:25.918Z,101322.44
2023-04-15T14:10:52.624Z,101325.69
2023-04-15T14:13:19.739Z,101318.31
2023-04-15T14:15:47.839Z,101312.69
2023-04-15T14:18:14.622Z,101316.56
2023-04-15T14:20:41.296Z,101324.31
2023-04-15T14:23:08.033Z,101317.66
2023-04-15T14:25:34.942Z,101326.47
2023-04-15T14:28:02.540Z,101321.97
2023-04-15T14:30:29.242Z,101316.22
2023-04-15T14:32:55.984Z,101317.75
2023-04-15T14:35:24.673Z,101316.13
2023-04-15T14:37:51.615Z,101307.31
2023-04-15T14:40:19.258Z,101313.78
2023-04-15T14:42:46.373Z,101309.84
2023-04-15T14:45:13.119Z,101316.69
2023-04-15T14:47:39.961Z,101319.09
2023-04-15T14:50:07.150Z,101316.56
2023-04-15T14:52:38.785Z,101323.31
2023-04-15T14:55:10.678Z,101314.28
2023-04-15T14:57:37.983Z,101321.25
2023-04-15T15:00:08.546Z,101328.03
2023-04-15T15:02:39.806Z,101332.22
2023-04-15T15:05:07.761Z,101318.56
2023-04-15T15:07:36.095Z,101330.31
2023-04-15T15:10:03.310Z,101325.53
2023-04-15T15:12:29.981Z,101330.06
2023-04-15T15:14:56.986Z,101330.63
2023-04-15T15:17:23.687Z,101334.19
2023-04-15T15:19:51.710Z,101332.22
2023-04-15T15:22:20.847Z,101337.44
2023-04-15T15:24:48.348Z,101328.28
2023-04-15T15:27:15.071Z,101332.09
2023-04-15T15:29:41.830Z,101332.03
2023-04-15T15:32:08.524Z,101330.84
2023-04-15T15:34:35.151Z,101337.78
2023-04-15T15:37:01.992Z,101338.59
2023-04-15T15:39:28.770Z,101336.88
2023-04-15T15:41:55.448Z,101336.41
2023-04-15T15:44:22.132Z,101330.41
2023-04-15T15:46:50.460Z,101335.50
2023-04-15T15:49:17.324Z,101337.38
2023-04-15T15:51:44.030Z,101337.63
2023-04-15T15:54:10.715Z,101344.00
2023-04-15T15:56:39.544Z,101333.69
2023-04-15T15:59:06.620Z,101335.31
2023-04-15T16:01:33.586Z,101330.19
2023-04-15T16:04:00.916Z,101329.03
2023-04-15T16:06:28.288Z,101330.66
2023-04-15T16:08:55.105Z,101329.13
2023-04-15T16:11:21.884Z,101335.97
2023-04-15T16:13:48.633Z,101327.16
2023-04-15T16:16:15.806Z,101327.88
2023-04-15T16:18:43.662Z,101323.00
2023-04-15T16:21:10.556Z,101319.66
2023-04-15T16:23:38.115Z,101332.09
2023-04-15T16:26:04.888Z,101327.84
2023-04-15T16:28:31.915Z,101330.06
2023-04-15T16:30:58.564Z,101339.13
2023-04-15T16:33:25.452Z,101331.16
2023-04-15T16:35:52.390Z,101333.72
2023-04-15T16:38:19.047Z,101330.13
2023-04-15T16:40:45.869Z,101325.72
2023-04-15T16:43:13.975Z,101322.03
2023-04-15T16:45:40.705Z,101322.34
2023-04-15T16:48:07.503Z,101325.03
2023-04-15T16:50:34.194Z,101318.53
2023-04-15T16:53:01.592Z,101336.63
2023-04-15T16:55:28.354Z,101325.94
2023-04-15T16:58:02.968Z,101327.47
2023-04-15T17:00:33.508Z,101323.06
2023-04-15T17:03:01.090Z,101322.59
2023-04-15T17:05:28.398Z,101333.63
2023-04-15T17:07:55.522Z,101322.72
2023-04-15T17:10:22.550Z,101328.41
2023-04-15T17:12:52.002Z,101328.38
2023-04-15T17:15:21.014Z,101333.81
2023-04-15T17:17:47.713Z,101332.63
2023-04-15T17:20:15.069Z,101328.25
2023-04-15T17:22:41.739Z,101330.09
2023-04-15T17:25:09.009Z,101323.16
2023-04-15T17:27:36.068Z,101325.56
2023-04-15T17:30:02.746Z,101322.19
2023-04-15T17:32:34.331Z,101306.91
2023-04-15T17:35:05.619Z,101296.94
2023-04-15T17:37:35.576Z,101298.13
2023-04-15T17:40:03.461Z,101307.22
2023-04-15T17:42:30.133Z,101296.13
2023-04-15T17:44:56.773Z,101304.00
2023-04-15T17:47:23.428Z,101288.72
2023-04-15T17:49:51.257Z,101302.13
2023-04-15T17:52:17.881Z,101300.16
2023-04-15T17:54:46.130Z,101308.28
2023-04-15T17:57:12.752Z,101309.91
2023-04-15T17:59:43.946Z,101312.31
2023-04-15T18:02:11.698Z,101318.69
2023-04-15T18:04:39.809Z,101311.31
2023-04-15T18:07:06.616Z,101320.56
2023-04-15T18:09:33.765Z,101319.44
2023-04-15T18:12:01.709Z,101309.00
2023-04-15T18:14:34.611Z,101307.38
2023-04-15T18:17:05.173Z,101320.94
2023-04-15T18:19:32.113Z,101319.88
2023-04-15T18:22:00.281Z,101316.41
2023-04-15T18:24:27.465Z,101315.38
2023-04-15T18:26:56.520Z,101313.88
2023-04-15T18:29:23.350Z,101313.75
2023-04-15T18:31:50.126Z,101311.31
2023-04-15T18:34:16.826Z,101312.81
2023-04-15T18:36:43.608Z,101303.53
2023-04-15T18:39:10.693Z,101301.59
2023-04-15T18:41:37.395Z,101301.50
2023-04-15T18:44:04.018Z,101307.22
2023-04-15T18:46:30.658Z,101304.69
2023-04-15T18:48:57.779Z,101307.69
2023-04-15T18:51:24.452Z,101309.53
2023-04-15T18:53:51.619Z,101317.94
2023-04-15T18:56:18.520Z,101311.19
2023-04-15T18:59:28.173Z,101309.66
2023-04-15T19:01:32.535Z,101313.31
2023-04-15T19:03:59.683Z,101320.59
2023-04-15T19:06:27.280Z,101317.88
2023-04-15T19:08:54.737Z,101315.47
2023-04-15T19:11:22.000Z,101302.50
2023-04-15T19:13:49.154Z,101311.00
2023-04-15T19:16:16.164Z,101313.31
2023-04-15T19:18:43.251Z,101310.41
2023-04-15T19:21:12.531Z,101311.06
2023-04-15T19:23:39.741Z,101309.63
2023-04-15T19:26:08.265Z,101312.16
2023-04-15T19:28:35.020Z,101315.78
2023-04-15T19:31:04.819Z,101323.47
2023-04-15T19:33:32.047Z,101319.97
2023-04-15T19:36:04.230Z,101325.72
2023-04-15T19:38:31.216Z,101334.88
2023-04-15T19:40:58.817Z,101336.88
2023-04-15T19:43:25.983Z,101347.00
2023-04-15T19:45:54.758Z,101341.50
2023-04-15T19:48:22.922Z,101344.75
2023-04-15T19:50:49.657Z,101342.97
2023-04-15T19:53:17.012Z,101342.69
2023-04-15T19:55:44.194Z,101345.28
2023-04-15T19:58:10.837Z,101351.97
2023-04-15T20:00:38.643Z,101352.66
2023-04-15T20:03:05.810Z,101363.88
2023-04-15T20:05:33.025Z,101366.81
2023-04-15T20:08:09.828Z,101371.38
2023-04-15T20:10:41.261Z,101375.44
2023-04-15T20:13:08.028Z,101387.78
2023-04-15T20:15:34.861Z,101393.66
2023-04-15T20:18:01.585Z,101394.00
2023-04-15T20:20:28.470Z,101379.00
2023-04-15T20:22:56.316Z,101379.66
2023-04-15T20:25:23.455Z,101365.97
2023-04-15T20:27:51.167Z,101372.50
2023-04-15T20:30:18.630Z,101375.91
2023-04-15T20:32:45.834Z,101369.91
2023-04-15T20:35:12.462Z,101377.72
2023-04-15T20:37:40.704Z,101374.63
2023-04-15T20:40:07.969Z,101363.56
2023-04-15T20:42:34.664Z,101359.81
2023-04-15T20:45:02.190Z,101384.72
2023-04-15T20:47:29.376Z,101394.47
2023-04-15T20:49:56.270Z,101382.41
2023-04-15T20:52:22.963Z,101374.78
2023-04-15T20:54:50.190Z,101371.03
2023-04-15T20:57:17.072Z,101373.31
2023-04-15T20:59:43.898Z,101355.41
2023-04-15T21:02:10.721Z,101355.75
2023-04-15T21:04:38.422Z,101354.91
2023-04-15T21:07:05.273Z,101352.63
2023-04-15T21:09:31.964Z,101363.06
2023-04-15T21:12:01.612Z,101361.94
2023-04-15T21:14:30.346Z,101365.16
2023-04-15T21:16:58.560Z,101371.19
2023-04-15T21:19:25.279Z,101367.94
2023-04-15T21:21:52.340Z,101371.84
2023-04-15T21:24:19.135Z,101370.22
2023-04-15T21:26:46.004Z,101375.75
2023-04-15T21:29:13.265Z,101369.41
2023-04-15T21:31:40.379Z,101373.31
2023-04-15T21:34:07.900Z,101363.88
2023-04-15T21:36:35.038Z,101368.09
2023-04-15T21:39:01.862Z,101372.81
2023-04-15T21:41:28.600Z,101377.03
2023-04-15T21:43:55.425Z,101382.25
2023-04-15T21:46:25.457Z,101388.28
2023-04-15T21:48:59.504Z,101392.34
2023-04-15T21:51:26.775Z,101389.25
2023-04-15T21:53:53.536Z,101383.72
2023-04-15T21:56:23.884Z,101378.19
2023-04-15T21:58:56.887Z,101382.09
2023-04-15T22:01:24.261Z,101376.09
2023-04-15T22:03:51.383Z,101378.34
2023-04-15T22:06:19.420Z,101370.03
2023-04-15T22:09:10.651Z,101372.00
2023-04-15T22:11:33.085Z,101363.22
2023-04-15T22:13:59.909Z,101369.22
2023-04-15T22:16:27.226Z,101366.16
2023-04-15T22:18:56.976Z,101362.09
2023-04-15T22:21:24.039Z,101368.75
2023-04-15T22:23:52.512Z,101364.38
2023-04-15T22:26:20.038Z,101365.97
2023-04-15T22:28:46.692Z,101365.97
2023-04-15T22:31:14.833Z,101364.03
2023-04-15T22:33:41.537Z,101358.84
2023-04-15T22:36:08.226Z,101352.00
2023-04-15T22:38:34.882Z,101365.00
2023-04-15T22:41:01.647Z,101356.25
2023-04-15T22:43:28.292Z,101341.25
2023-04-15T22:45:55.302Z,101330.84
2023-04-15T22:48:22.631Z,101330.84
2023-04-15T22:50:49.859Z,101350.72
2023-04-15T22:53:20.286Z,101353.97
2023-04-15T22:55:47.915Z,101346.16
2023-04-15T22:58:16.340Z,101354.44
2023-04-15T23:00:43.140Z,101358.66
2023-04-15T23:03:10.239Z,101361.91
2023-04-15T23:05:37.500Z,101352.16
2023-04-15T23:08:04.146Z,101349.38
2023-04-15T23:10:30.903Z,101365.19
2023-04-15T23:12:59.618Z,101366.47
2023-04-15T23:15:26.559Z,101365.00
2023-04-15T23:17:53.219Z,101363.38
2023-04-15T23:20:19.912Z,101366.63
2023-04-15T23:22:46.644Z,101368.25
2023-04-15T23:25:13.390Z,101373.16
2023-04-15T23:27:40.005Z,101368.44
2023-04-15T23:30:07.455Z,101368.59
2023-04-15T23:32:34.209Z,101363.88
2023-04-15T23:35:01.033Z,101360.81
2023-04-15T23:37:27.666Z,101368.59
2023-04-15T23:39:55.766Z,101360.28
2023-04-15T23:42:23.338Z,101367.94
2023-04-15T23:44:51.206Z,101365.16
2023-04-15T23:47:17.828Z,101360.47
2023-04-15T23:49:44.495Z,101362.88
2023-04-15T23:52:11.092Z,101354.94
2023-04-15T23:54:37.835Z,101356.88
2023-04-15T23:57:04.535Z,101349.75
2023-04-15T23:59:31.152Z,101356.88
